Terminal Aerodrome Forecast
Issued by NWS Twin Cities, MN

Home | Current Version | Previous Version | Text Only | Print | Product List | Glossary Off
Versions: 1 2 3 4 5 6 7 8 9 10 11 12 13 14 15 16 17 18 19 20 21 22 23 24 25 26 27 28 29

164
FTUS43 KMPX 221527 AAA
TAFMSP
TAF AMD
KMSP 221527Z 2215/2318 VRB03KT P6SM SCT120 BKN250
     FM221900 33005KT P6SM BKN120
     FM230000 31007KT P6SM BKN045
     FM230100 32008KT P6SM BKN030
     FM230400 32009KT P6SM SCT008 OVC015
     FM231300 01007KT P6SM SCT020 BKN040=

USA.gov is the U.S. government's official web portal to all federal, state and local government web resources and services.